ENKR/KKN METAR and TAF weather

Enter ICAO airport designator
Station Type Date Time Source
ENKR METAR 2018/04/23 11:20 UTC NOAA

ENKR 231120Z 18006KT 9999 FEW043 03/M04 Q1011 RMK WIND 731FT 18008KT


Station Type Date Time Source
ENKR Decoded METAR 2018/04/23 11:20 UTC NOAA

Kirkenes Lufthavn, Norway (ENKR) 69-44N 029-54E 91M
Apr 23, 2018 - 07:20 AM EDT / 2018.04.23 1120 UTC
Wind: from the S (180 degrees) at 7 MPH (6 KT):0
Visibility: greater than 7 mile(s):0
Sky conditions: mostly clear
Temperature: 37 F (3 C)
Dew Point: 24 F (-4 C)
Relative Humidity: 59%
Pressure (altimeter): 29.85 in. Hg (1011 hPa)
ob: ENKR 231120Z 18006KT 9999 FEW043 03/M04 Q1011 RMK WIND 731FT 18008KT
cycle: 11

Station Type Date Time Source
ENKR TAF 2017/08/31 21:36 UTC NOAA

TAF TAF ENKR 312300Z 3121/0109 29005KT 9999 FEW020 SCT040


Example: see airport list